Time;durP1;ratioP1;P1;durP2;ratioP2;P2;SDS_P1;SDS_P2;PMS_P1;PMS_P2;Temp;Humidity;BMP_temperature;BMP_pressure;BME280_temperature;BME280_humidity;BME280_pressure;Samples;Min_cycle;Max_cycle;Signal;HPM_P1;HPM_P2
2021/04/29 00:01:44;;;;;;;16.87;15.07;;;11.30;99.90;;;;;;5102903;28;20438;-44
2021/04/29 00:04:10;;;;;;;17.47;15.33;;;11.30;99.90;;;;;;5102494;28;20475;-44
2021/04/29 00:06:36;;;;;;;18.13;16.30;;;11.30;99.90;;;;;;5102949;28;20267;-42
2021/04/29 00:09:04;;;;;;;16.60;15.00;;;11.30;99.90;;;;;;5102371;28;20446;-43
2021/04/29 00:11:30;;;;;;;16.80;15.10;;;11.30;99.90;;;;;;5101354;28;20423;-42
2021/04/29 00:13:56;;;;;;;17.87;15.80;;;11.30;99.90;;;;;;5101810;28;20462;-43
2021/04/29 00:16:21;;;;;;;17.23;15.60;;;11.30;99.90;;;;;;5102739;28;20572;-43
2021/04/29 00:18:47;;;;;;;18.10;16.33;;;11.30;99.90;;;;;;5102998;28;20271;-43
2021/04/29 00:21:13;;;;;;;17.73;16.00;;;11.30;99.90;;;;;;5102169;28;20191;-43
2021/04/29 00:23:39;;;;;;;18.13;16.50;;;11.20;99.90;;;;;;5102524;28;20414;-42
2021/04/29 00:26:04;;;;;;;17.90;16.20;;;11.20;99.90;;;;;;5102040;28;20181;-42
2021/04/29 00:28:31;;;;;;;17.77;15.90;;;11.20;99.90;;;;;;5102223;28;20176;-42
2021/04/29 00:30:56;;;;;;;17.37;15.57;;;11.20;99.90;;;;;;5102430;28;20188;-42
2021/04/29 00:33:22;;;;;;;19.07;17.00;;;11.20;99.90;;;;;;5101798;28;20906;-41
2021/04/29 00:35:48;;;;;;;16.53;14.87;;;11.20;99.90;;;;;;5100390;28;20223;-43
2021/04/29 00:38:16;;;;;;;19.93;16.10;;;11.20;99.90;;;;;;5101588;28;20301;-43
2021/04/29 00:40:41;;;;;;;17.90;16.10;;;11.20;99.90;;;;;;5101404;28;20191;-42
2021/04/29 00:43:13;;;;;;;17.20;15.40;;;11.20;99.90;;;;;;5102104;28;20887;-42
2021/04/29 00:45:39;;;;;;;16.17;14.53;;;11.20;99.90;;;;;;5101160;28;20747;-42
2021/04/29 00:48:05;;;;;;;15.93;14.53;;;11.20;99.90;;;;;;5101632;28;20847;-42
2021/04/29 00:50:32;;;;;;;16.93;15.20;;;11.20;99.90;;;;;;5100971;28;20406;-42
2021/04/29 00:52:57;;;;;;;14.63;13.27;;;11.20;99.90;;;;;;5101670;28;20426;-43
2021/04/29 00:55:23;;;;;;;14.50;13.10;;;11.30;99.90;;;;;;5101673;28;20462;-42
2021/04/29 00:57:49;;;;;;;13.73;12.37;;;11.30;99.90;;;;;;5101233;28;20184;-43
2021/04/29 01:00:16;;;;;;;13.47;12.17;;;11.30;99.90;;;;;;5102510;28;20187;-43
2021/04/29 01:03:05;;;;;;;14.27;12.13;;;11.20;99.90;;;;;;5083977;28;20430;-42
2021/04/29 01:05:42;;;;;;;13.80;12.40;;;11.30;99.90;;;;;;5090657;28;20430;-43
2021/04/29 01:08:24;;;;;;;13.10;11.87;;;11.30;99.90;;;;;;5100752;28;20426;-42
2021/04/29 01:10:57;;;;;;;13.30;11.90;;;11.30;99.90;;;;;;5098964;28;20425;-42
2021/04/29 01:13:24;;;;;;;12.03;11.00;;;11.30;99.90;;;;;;5100444;28;20466;-43
2021/04/29 01:15:50;;;;;;;12.77;11.47;;;11.30;99.90;;;;;;5101438;28;20902;-43
2021/04/29 01:18:17;;;;;;;12.53;11.43;;;11.30;99.90;;;;;;5100994;28;20460;-42
2021/04/29 01:21:15;;;;;;;11.43;10.23;;;11.30;99.90;;;;;;5101324;28;20419;-42
2021/04/29 01:23:44;;;;;;;11.77;10.67;;;11.30;99.90;;;;;;5101287;28;20399;-42
2021/04/29 01:26:29;;;;;;;10.53;9.53;;;11.30;99.90;;;;;;5101306;28;20435;-42
2021/04/29 01:28:56;;;;;;;10.20;9.20;;;11.30;99.90;;;;;;5101399;28;20403;-42
2021/04/29 01:31:25;;;;;;;8.83;8.03;;;11.30;99.90;;;;;;5100649;28;20457;-42
2021/04/29 01:37:13;;;;;;;7.50;6.90;;;11.30;99.90;;;;;;5100576;28;21049;-42
2021/04/29 01:39:39;;;;;;;6.90;6.27;;;11.20;99.90;;;;;;5101137;28;20402;-42
2021/04/29 01:42:06;;;;;;;6.20;5.60;;;11.20;99.90;;;;;;5101421;28;20426;-42
2021/04/29 01:44:32;;;;;;;5.77;5.23;;;11.20;99.90;;;;;;5100025;28;20509;-43
2021/04/29 01:47:00;;;;;;;5.10;4.60;;;11.20;99.90;;;;;;5100558;28;20424;-43
2021/04/29 01:49:26;;;;;;;4.20;3.80;;;11.20;99.90;;;;;;5100966;28;20402;-41
2021/04/29 01:51:52;;;;;;;4.70;4.20;;;11.20;99.90;;;;;;5100030;28;20923;-41
2021/04/29 01:54:19;;;;;;;3.97;3.57;;;11.20;99.90;;;;;;5100418;28;20414;-41
2021/04/29 01:56:46;;;;;;;3.20;3.00;;;11.20;99.90;;;;;;5099678;28;20427;-43
2021/04/29 01:59:14;;;;;;;2.90;2.70;;;11.20;99.90;;;;;;5100399;28;20433;-43
2021/04/29 02:01:41;;;;;;;2.80;2.37;;;11.10;99.90;;;;;;5101011;28;20418;-42
2021/04/29 02:04:08;;;;;;;2.33;2.13;;;11.20;99.90;;;;;;5100429;28;20462;-42
2021/04/29 02:06:35;;;;;;;2.17;1.97;;;11.20;99.90;;;;;;5100581;28;20454;-40
2021/04/29 02:09:01;;;;;;;2.90;1.63;;;11.20;99.90;;;;;;5100261;28;20693;-42
2021/04/29 02:11:29;;;;;;;1.53;1.33;;;11.10;99.90;;;;;;5100765;28;20670;-41
2021/04/29 02:13:56;;;;;;;2.10;1.43;;;11.10;99.90;;;;;;5099431;28;20476;-42
2021/04/29 02:16:28;;;;;;;1.60;1.30;;;11.10;99.90;;;;;;5100263;28;20476;-42
2021/04/29 02:18:55;;;;;;;3.00;1.90;;;11.10;99.90;;;;;;5098842;28;20437;-42
2021/04/29 02:21:21;;;;;;;2.20;1.40;;;11.10;99.90;;;;;;5099063;28;20422;-42
2021/04/29 02:23:48;;;;;;;2.67;1.73;;;11.10;99.90;;;;;;5099468;28;20410;-43
2021/04/29 02:26:16;;;;;;;1.70;1.53;;;11.10;99.90;;;;;;5099711;28;20442;-43
2021/04/29 02:28:42;;;;;;;2.07;1.47;;;11.10;99.90;;;;;;5099897;28;20437;-42
2021/04/29 02:31:10;;;;;;;2.30;1.53;;;11.20;99.90;;;;;;5099314;28;20433;-42
2021/04/29 02:33:36;;;;;;;1.87;1.60;;;11.10;99.90;;;;;;5100133;28;20674;-42
2021/04/29 02:36:04;;;;;;;2.40;1.77;;;11.10;99.90;;;;;;5098046;28;20853;-39
2021/04/29 02:38:30;;;;;;;2.00;1.70;;;11.20;99.90;;;;;;5099310;28;20899;-41
2021/04/29 02:40:57;;;;;;;2.50;1.50;;;11.10;99.90;;;;;;5098977;28;20425;-42
2021/04/29 02:43:23;;;;;;;2.00;1.70;;;11.10;99.90;;;;;;5098817;28;20423;-42
2021/04/29 02:45:49;;;;;;;2.53;1.40;;;11.10;99.90;;;;;;5098840;28;20434;-42
2021/04/29 02:48:17;;;;;;;2.90;1.50;;;11.00;99.90;;;;;;5098665;28;20415;-43
2021/04/29 02:50:45;;;;;;;1.63;1.30;;;11.00;99.90;;;;;;5098186;28;20881;-43
2021/04/29 02:53:15;;;;;;;1.40;1.23;;;11.10;99.90;;;;;;5099200;28;20559;-42
2021/04/29 02:55:42;;;;;;;1.93;1.73;;;10.90;99.90;;;;;;5097051;28;20461;-42
2021/04/29 02:58:09;;;;;;;1.63;1.20;;;11.00;99.90;;;;;;5099592;28;20418;-43
2021/04/29 03:00:36;;;;;;;2.13;1.93;;;10.90;99.90;;;;;;5099191;28;20430;-41
2021/04/29 03:03:02;;;;;;;1.70;1.60;;;10.90;99.90;;;;;;5098169;28;20727;-42
2021/04/29 03:05:28;;;;;;;1.70;1.57;;;10.90;99.90;;;;;;5098684;28;20836;-43
2021/04/29 03:07:54;;;;;;;1.90;1.60;;;10.90;99.90;;;;;;5098986;28;20518;-43
2021/04/29 03:10:20;;;;;;;2.13;1.20;;;10.80;99.90;;;;;;5099220;28;20410;-43
2021/04/29 03:12:46;;;;;;;2.87;1.60;;;10.70;99.90;;;;;;5098933;28;20789;-43
2021/04/29 03:15:12;;;;;;;1.90;1.30;;;10.70;99.90;;;;;;5097049;28;20569;-42
2021/04/29 03:17:38;;;;;;;1.60;1.23;;;10.70;99.90;;;;;;5098881;28;20426;-43
2021/04/29 03:20:05;;;;;;;1.60;1.30;;;10.70;99.90;;;;;;5097785;28;20425;-42
2021/04/29 03:22:31;;;;;;;1.27;0.80;;;10.80;99.90;;;;;;5099029;28;20430;-43
2021/04/29 03:24:57;;;;;;;1.33;1.10;;;10.80;99.90;;;;;;5098301;28;20484;-43
2021/04/29 03:27:23;;;;;;;1.47;0.90;;;10.80;99.90;;;;;;5098889;28;20244;-42
2021/04/29 03:29:50;;;;;;;0.97;0.87;;;10.70;99.90;;;;;;5098985;28;20176;-42
2021/04/29 03:32:16;;;;;;;1.53;1.10;;;10.60;99.90;;;;;;5098229;28;20430;-41
2021/04/29 03:34:41;;;;;;;1.10;0.80;;;10.60;99.90;;;;;;5098012;28;20450;-42
2021/04/29 03:37:07;;;;;;;1.13;0.97;;;10.60;99.90;;;;;;5098576;28;20180;-43
2021/04/29 03:39:33;;;;;;;1.67;0.80;;;10.50;99.90;;;;;;5098825;28;20512;-41
2021/04/29 03:41:59;;;;;;;2.03;0.83;;;10.50;99.90;;;;;;5097950;28;20545;-43
2021/04/29 03:44:25;;;;;;;2.27;1.20;;;10.40;99.90;;;;;;5098727;28;20442;-43
2021/04/29 03:46:51;;;;;;;1.20;1.03;;;10.40;99.90;;;;;;5097343;28;20198;-43
2021/04/29 03:49:16;;;;;;;1.30;0.87;;;10.40;99.90;;;;;;5097401;28;20701;-43
2021/04/29 03:51:42;;;;;;;1.20;1.00;;;10.30;99.90;;;;;;5096633;28;20533;-43
2021/04/29 03:54:08;;;;;;;1.33;1.00;;;10.40;99.90;;;;;;5097444;28;20558;-43
2021/04/29 03:56:34;;;;;;;1.20;1.00;;;10.30;99.90;;;;;;5096819;28;20211;-43
2021/04/29 03:59:00;;;;;;;1.70;1.37;;;10.30;99.90;;;;;;5097762;28;20173;-43
2021/04/29 04:01:25;;;;;;;1.27;1.13;;;10.30;99.90;;;;;;5098053;28;20444;-41
2021/04/29 04:03:51;;;;;;;3.53;1.10;;;10.30;99.90;;;;;;5097827;28;20222;-43
2021/04/29 04:06:17;;;;;;;1.40;0.97;;;10.30;99.90;;;;;;5098506;28;20238;-43
2021/04/29 04:08:43;;;;;;;1.50;1.27;;;10.30;99.90;;;;;;5098138;28;20180;-42
2021/04/29 04:11:08;;;;;;;1.83;1.50;;;10.20;99.90;;;;;;5097882;28;20449;-42
2021/04/29 04:13:34;;;;;;;1.60;1.50;;;10.20;99.90;;;;;;5098178;28;20231;-42
2021/04/29 04:16:00;;;;;;;1.83;1.53;;;10.20;99.90;;;;;;5097638;28;20212;-41
2021/04/29 04:18:26;;;;;;;2.00;1.80;;;10.20;99.90;;;;;;5097925;28;20422;-43
2021/04/29 04:20:51;;;;;;;3.13;1.70;;;10.10;99.90;;;;;;5097441;28;20769;-43
2021/04/29 04:23:18;;;;;;;2.57;1.60;;;10.10;99.90;;;;;;5098363;28;20181;-43
2021/04/29 04:25:44;;;;;;;2.57;1.83;;;10.10;99.90;;;;;;5098066;28;20573;-40
2021/04/29 04:28:10;;;;;;;5.03;2.83;;;10.10;99.90;;;;;;5096867;28;20422;-43
2021/04/29 04:30:36;;;;;;;2.90;1.80;;;10.10;99.90;;;;;;5097590;28;20430;-42
2021/04/29 04:33:02;;;;;;;2.43;2.23;;;10.10;99.90;;;;;;5097940;28;20195;-43
2021/04/29 04:35:28;;;;;;;2.13;1.90;;;10.10;99.90;;;;;;5097987;28;20200;-43
2021/04/29 04:37:53;;;;;;;2.30;2.10;;;10.10;99.50;;;;;;5097957;28;20475;-42
2021/04/29 04:40:19;;;;;;;4.17;2.13;;;10.20;99.40;;;;;;5097303;28;20204;-43
2021/04/29 04:42:45;;;;;;;3.53;2.50;;;10.10;99.70;;;;;;5098072;28;20200;-42
2021/04/29 04:45:12;;;;;;;2.40;2.20;;;10.20;99.40;;;;;;5099587;28;20662;-41
2021/04/29 04:47:38;;;;;;;3.60;3.30;;;10.20;99.30;;;;;;5101181;28;20520;-41
2021/04/29 04:50:06;;;;;;;4.10;3.70;;;10.20;99.00;;;;;;5100430;28;20441;-42
2021/04/29 04:52:32;;;;;;;4.63;2.93;;;10.30;99.00;;;;;;5101799;28;20835;-43
2021/04/29 04:54:58;;;;;;;4.20;3.10;;;10.30;98.60;;;;;;5100593;28;20472;-44
2021/04/29 04:57:24;;;;;;;3.20;2.83;;;10.40;98.70;;;;;;5099617;28;20437;-43
2021/04/29 04:59:50;;;;;;;4.90;3.40;;;10.50;98.80;;;;;;5098995;28;20250;-43
2021/04/29 05:02:15;;;;;;;3.27;2.97;;;10.50;98.70;;;;;;5099897;28;20164;-42
2021/04/29 05:04:41;;;;;;;3.90;3.37;;;10.50;98.30;;;;;;5100835;28;20497;-42
2021/04/29 05:07:07;;;;;;;5.00;2.93;;;10.50;98.40;;;;;;5100738;28;20559;-43
2021/04/29 05:09:33;;;;;;;4.33;3.50;;;10.40;98.30;;;;;;5100513;28;20173;-44
2021/04/29 05:11:59;;;;;;;3.30;3.00;;;10.50;98.00;;;;;;5101259;28;20176;-43
2021/04/29 05:14:27;;;;;;;3.67;3.30;;;10.50;98.00;;;;;;5100720;28;20493;-43
2021/04/29 05:16:52;;;;;;;5.33;4.23;;;10.50;98.50;;;;;;5100027;28;20184;-41
2021/04/29 05:19:19;;;;;;;4.87;3.40;;;10.50;98.00;;;;;;5099523;28;20430;-43
2021/04/29 05:21:45;;;;;;;8.47;4.20;;;10.50;98.10;;;;;;5098072;28;20192;-43
2021/04/29 05:24:10;;;;;;;3.73;3.40;;;10.60;98.10;;;;;;5098786;28;20789;-42
2021/04/29 05:26:36;;;;;;;4.77;4.20;;;10.60;97.60;;;;;;5099159;28;20264;-43
2021/04/29 05:29:03;;;;;;;4.33;3.93;;;10.60;97.50;;;;;;5099175;28;20197;-43
2021/04/29 05:31:28;;;;;;;5.30;3.83;;;10.40;97.70;;;;;;5099263;28;20169;-42
2021/04/29 05:33:54;;;;;;;4.83;4.43;;;10.30;97.60;;;;;;5098951;28;20681;-42
2021/04/29 05:36:20;;;;;;;5.27;4.77;;;10.30;97.40;;;;;;5097852;28;20219;-39
2021/04/29 05:38:45;;;;;;;4.50;4.10;;;10.30;97.60;;;;;;5098773;28;20184;-43
2021/04/29 05:41:11;;;;;;;4.77;3.83;;;10.40;97.80;;;;;;5099853;28;20245;-43
2021/04/29 05:43:37;;;;;;;5.33;4.73;;;10.50;97.60;;;;;;5099334;28;20569;-43
2021/04/29 05:46:03;;;;;;;4.73;4.20;;;10.50;97.50;;;;;;5099676;28;20354;-42
2021/04/29 05:48:29;;;;;;;5.03;4.20;;;10.60;97.70;;;;;;5099022;28;20199;-44
2021/04/29 05:50:56;;;;;;;6.10;4.20;;;10.60;97.70;;;;;;5099834;28;20418;-44
2021/04/29 05:53:22;;;;;;;4.87;4.17;;;10.60;97.50;;;;;;5099092;28;20479;-41
2021/04/29 05:55:48;;;;;;;4.60;4.20;;;10.50;97.90;;;;;;5080449;28;20563;-43
2021/04/29 05:58:14;;;;;;;4.60;4.20;;;10.60;98.00;;;;;;5097574;28;20415;-43
2021/04/29 06:00:40;;;;;;;5.80;4.10;;;10.60;98.00;;;;;;5098418;28;20450;-41
2021/04/29 06:03:06;;;;;;;6.67;5.00;;;10.70;98.00;;;;;;5097546;28;20189;-42
2021/04/29 06:05:31;;;;;;;5.23;4.73;;;10.60;98.20;;;;;;5098248;28;20406;-42
2021/04/29 06:07:58;;;;;;;5.80;4.57;;;10.70;98.50;;;;;;5099061;28;20483;-40
2021/04/29 06:10:25;;;;;;;5.13;4.20;;;10.70;98.40;;;;;;5099020;28;20207;-42
2021/04/29 06:12:50;;;;;;;5.33;4.83;;;10.80;98.60;;;;;;5098873;28;20921;-42
2021/04/29 06:15:16;;;;;;;7.00;4.67;;;10.80;98.60;;;;;;5097964;28;20486;-41
2021/04/29 06:17:42;;;;;;;5.37;4.50;;;10.90;98.20;;;;;;5099981;28;20458;-40
2021/04/29 06:20:09;;;;;;;7.37;4.80;;;11.00;98.40;;;;;;5097990;28;20407;-42
2021/04/29 06:22:35;;;;;;;4.67;4.23;;;11.10;98.10;;;;;;5098134;28;20181;-42
2021/04/29 06:25:00;;;;;;;5.80;5.30;;;11.20;98.50;;;;;;5095351;28;20481;-41
2021/04/29 06:27:26;;;;;;;8.67;5.30;;;11.40;97.70;;;;;;5099576;28;20180;-41
2021/04/29 06:29:52;;;;;;;6.23;5.30;;;11.40;97.20;;;;;;5097961;28;20637;-40
2021/04/29 06:32:18;;;;;;;5.73;4.50;;;11.40;97.30;;;;;;5097284;28;20188;-42
2021/04/29 06:34:45;;;;;;;5.47;4.97;;;11.60;97.40;;;;;;5097760;28;20458;-42
2021/04/29 06:37:11;;;;;;;6.37;4.93;;;11.70;97.00;;;;;;5098214;28;20168;-41
2021/04/29 06:39:37;;;;;;;7.13;5.23;;;11.60;97.00;;;;;;5097769;28;20432;-42
2021/04/29 06:42:03;;;;;;;5.60;5.00;;;11.90;97.20;;;;;;5098931;28;20172;-43
2021/04/29 06:44:30;;;;;;;6.10;5.20;;;12.10;96.20;;;;;;5097464;28;20488;-38
2021/04/29 06:46:56;;;;;;;5.73;5.03;;;12.10;95.50;;;;;;5081146;28;20446;-42
2021/04/29 06:49:22;;;;;;;5.53;4.93;;;12.50;95.80;;;;;;5097534;28;20755;-42
2021/04/29 06:51:47;;;;;;;6.17;5.67;;;12.80;95.20;;;;;;5098475;28;20192;-43
2021/04/29 06:54:13;;;;;;;5.60;5.10;;;13.00;94.60;;;;;;5098978;28;20445;-43
2021/04/29 06:56:39;;;;;;;7.47;6.30;;;13.20;94.60;;;;;;5098244;28;20203;-42
2021/04/29 06:59:05;;;;;;;8.60;6.77;;;12.80;93.70;;;;;;5098145;28;20184;-40
2021/04/29 07:01:35;;;;;;;7.57;6.10;;;12.70;94.50;;;;;;5098320;28;20511;-41
2021/04/29 07:04:01;;;;;;;8.47;6.53;;;13.00;93.60;;;;;;5097574;28;20477;-42
2021/04/29 07:06:28;;;;;;;9.63;6.67;;;13.00;93.20;;;;;;5095774;28;20477;-43
2021/04/29 07:08:53;;;;;;;6.57;5.70;;;12.80;93.60;;;;;;5093869;28;20430;-41
2021/04/29 07:11:20;;;;;;;7.43;6.67;;;12.80;94.30;;;;;;5096690;28;20419;-42
2021/04/29 07:13:46;;;;;;;8.67;6.50;;;13.00;93.80;;;;;;5097297;28;20212;-41
2021/04/29 07:16:12;;;;;;;6.87;6.23;;;12.80;93.30;;;;;;5098750;28;20913;-43
2021/04/29 07:18:38;;;;;;;7.60;6.90;;;12.90;93.70;;;;;;5096661;28;20433;-43
2021/04/29 07:21:04;;;;;;;9.70;7.03;;;12.70;93.40;;;;;;5096909;28;20524;-43
2021/04/29 07:23:30;;;;;;;8.70;7.07;;;12.80;93.70;;;;;;5098071;28;20206;-42
2021/04/29 07:25:57;;;;;;;10.47;7.20;;;12.90;94.10;;;;;;5097807;28;20418;-42
2021/04/29 07:28:23;;;;;;;8.47;7.23;;;13.00;93.30;;;;;;5097647;28;20529;-43
2021/04/29 07:30:49;;;;;;;8.70;7.90;;;12.90;92.80;;;;;;5098411;28;20434;-42
2021/04/29 07:33:16;;;;;;;9.17;8.10;;;12.90;93.10;;;;;;5097707;28;20487;-41
2021/04/29 07:35:42;;;;;;;11.37;8.97;;;12.80;93.00;;;;;;5098504;28;20462;-43
2021/04/29 07:38:09;;;;;;;10.00;8.70;;;12.80;92.90;;;;;;5097091;28;20417;-40
2021/04/29 07:40:35;;;;;;;10.17;9.20;;;13.00;92.50;;;;;;5096953;28;20848;-41
2021/04/29 07:43:01;;;;;;;9.03;8.23;;;13.20;92.50;;;;;;5097066;28;20486;-40
2021/04/29 07:45:27;;;;;;;9.40;8.40;;;13.60;91.80;;;;;;5096031;28;20184;-43
2021/04/29 07:47:53;;;;;;;10.40;9.40;;;13.90;91.20;;;;;;5097552;28;20900;-42
2021/04/29 07:50:19;;;;;;;10.33;9.33;;;14.30;90.30;;;;;;5097101;28;20521;-41
2021/04/29 07:52:45;;;;;;;11.40;9.90;;;14.30;90.20;;;;;;5096140;28;20201;-43
2021/04/29 07:55:15;;;;;;;11.73;10.63;;;14.40;89.00;;;;;;5096151;28;20468;-43
2021/04/29 07:57:41;;;;;;;10.67;9.67;;;13.80;90.10;;;;;;5097641;28;20433;-42
2021/04/29 08:00:08;;;;;;;10.90;9.80;;;13.90;90.20;;;;;;5096470;28;20669;-42
2021/04/29 08:02:35;;;;;;;11.13;9.97;;;14.00;90.60;;;;;;5098425;28;20425;-43
2021/04/29 08:05:01;;;;;;;11.30;10.10;;;14.10;89.00;;;;;;5096227;28;20462;-41
2021/04/29 08:07:26;;;;;;;11.43;10.33;;;14.30;88.30;;;;;;5098135;28;20454;-42
2021/04/29 08:09:53;;;;;;;11.67;10.50;;;14.40;88.40;;;;;;5097399;28;20192;-42
2021/04/29 08:12:18;;;;;;;12.37;11.17;;;14.00;88.40;;;;;;5097609;28;20176;-42
2021/04/29 08:14:44;;;;;;;11.47;9.23;;;14.10;89.80;;;;;;5097385;28;20924;-40
2021/04/29 08:17:10;;;;;;;12.83;10.73;;;14.50;89.50;;;;;;5096352;28;20465;-42
2021/04/29 08:19:36;;;;;;;10.50;9.50;;;14.40;89.30;;;;;;5098087;28;20426;-43
2021/04/29 08:22:04;;;;;;;12.17;11.07;;;15.10;88.40;;;;;;5102134;28;20183;-42
2021/04/29 08:24:30;;;;;;;11.40;10.13;;;14.40;87.80;;;;;;5102180;28;20410;-38
2021/04/29 08:26:56;;;;;;;13.20;11.67;;;14.00;89.00;;;;;;5101560;28;20508;-43
2021/04/29 08:29:23;;;;;;;12.07;11.03;;;13.80;88.40;;;;;;5100732;28;20911;-43
2021/04/29 08:31:49;;;;;;;13.77;11.13;;;14.00;87.30;;;;;;5100691;28;20605;-41
2021/04/29 08:34:15;;;;;;;13.30;12.10;;;14.00;86.90;;;;;;5099638;28;20866;-41
2021/04/29 08:36:41;;;;;;;12.43;11.33;;;13.90;87.40;;;;;;5100079;28;20477;-41
2021/04/29 08:39:06;;;;;;;12.50;11.27;;;13.90;86.70;;;;;;5100173;28;20259;-43
2021/04/29 08:41:33;;;;;;;13.60;12.20;;;14.00;87.30;;;;;;5099746;28;20521;-43
2021/04/29 08:43:59;;;;;;;12.93;11.73;;;14.40;86.00;;;;;;5099300;28;20323;-52
2021/04/29 08:46:25;;;;;;;13.70;11.27;;;14.40;85.30;;;;;;5081675;28;20493;-42
2021/04/29 08:48:55;;;;;;;13.77;10.43;;;14.70;84.30;;;;;;5099323;28;20433;-42
2021/04/29 08:51:22;;;;;;;13.70;12.37;;;14.50;84.90;;;;;;5098572;28;20432;-40
2021/04/29 08:53:49;;;;;;;13.33;11.47;;;14.60;83.40;;;;;;5100748;28;20505;-42
2021/04/29 08:56:22;;;;;;;13.30;12.00;;;14.40;84.20;;;;;;5100930;28;20468;-42
2021/04/29 08:58:52;;;;;;;14.20;11.57;;;14.50;84.30;;;;;;5100048;28;20775;-41
2021/04/29 09:01:18;;;;;;;13.83;10.83;;;14.20;84.00;;;;;;5099750;28;20732;-43
2021/04/29 09:03:47;;;;;;;12.00;10.80;;;14.00;85.70;;;;;;5100682;28;20407;-43
2021/04/29 09:06:13;;;;;;;12.07;10.77;;;14.00;86.30;;;;;;5099284;28;20582;-42
2021/04/29 09:08:40;;;;;;;12.60;11.33;;;14.30;86.90;;;;;;5098468;28;20423;-43
2021/04/29 09:11:13;;;;;;;12.67;10.47;;;14.40;86.00;;;;;;5099449;28;20437;-43
2021/04/29 09:13:40;;;;;;;11.90;10.70;;;14.10;85.70;;;;;;5100152;28;20793;-42
2021/04/29 09:16:09;;;;;;;12.57;11.27;;;14.00;87.10;;;;;;5100055;28;20815;-43
2021/04/29 09:18:36;;;;;;;13.10;10.60;;;14.10;86.80;;;;;;5101043;28;20422;-41
2021/04/29 09:21:13;;;;;;;10.27;9.37;;;14.10;87.60;;;;;;5099957;28;20422;-44
2021/04/29 09:23:50;;;;;;;11.60;10.60;;;14.30;87.80;;;;;;5097752;28;20509;-42
2021/04/29 09:26:18;;;;;;;12.53;10.37;;;14.60;87.30;;;;;;5098249;28;20447;-42
2021/04/29 09:28:53;;;;;;;11.57;10.23;;;14.70;86.00;;;;;;5098805;28;20410;-40
2021/04/29 09:31:20;;;;;;;11.37;10.17;;;14.40;86.10;;;;;;5098384;28;20433;-42
2021/04/29 09:33:51;;;;;;;10.30;9.30;;;14.10;88.50;;;;;;5098371;28;20476;-43
2021/04/29 09:36:27;;;;;;;8.87;8.07;;;13.60;90.60;;;;;;5098808;28;20778;-43
2021/04/29 09:39:07;;;;;;;9.83;8.87;;;13.70;91.20;;;;;;5099182;28;20418;-43
2021/04/29 09:41:35;;;;;;;10.33;9.33;;;13.50;92.00;;;;;;5099895;28;20823;-42
2021/04/29 09:44:04;;;;;;;10.30;9.40;;;13.60;92.80;;;;;;5099358;28;20415;-42
2021/04/29 09:46:43;;;;;;;11.07;9.77;;;13.50;93.00;;;;;;5099166;28;20433;-42
2021/04/29 09:49:38;;;;;;;12.93;11.60;;;13.80;93.30;;;;;;5099543;28;20847;-42
2021/04/29 09:52:19;;;;;;;14.40;11.53;;;14.70;92.90;;;;;;5097918;28;20532;-42
2021/04/29 09:54:45;;;;;;;12.07;10.90;;;16.30;90.20;;;;;;5098526;28;20525;-43
2021/04/29 09:57:15;;;;;;;9.77;8.90;;;16.80;87.70;;;;;;5099044;28;20426;-43
2021/04/29 09:59:56;;;;;;;10.67;9.10;;;17.80;80.80;;;;;;5098280;28;20410;-43
2021/04/29 10:02:22;;;;;;;8.40;7.67;;;18.10;75.20;;;;;;5098509;28;20513;-42
2021/04/29 10:04:47;;;;;;;9.10;7.80;;;18.60;74.80;;;;;;5098253;28;20595;-41
2021/04/29 10:07:15;;;;;;;9.90;9.00;;;20.30;71.80;;;;;;5098465;28;20969;-42
2021/04/29 10:09:46;;;;;;;9.97;8.97;;;19.60;70.90;;;;;;5098730;28;20267;-43
2021/04/29 10:12:13;;;;;;;13.30;9.03;;;20.20;65.70;;;;;;5096745;28;20423;-42
2021/04/29 10:14:50;;;;;;;10.10;9.10;;;21.40;63.40;;;;;;5097993;28;20550;-43
2021/04/29 10:17:18;;;;;;;11.37;10.03;;;20.20;60.20;;;;;;5098874;28;20430;-40
2021/04/29 10:19:46;;;;;;;10.57;9.67;;;19.40;62.50;;;;;;5098459;28;20427;-42
2021/04/29 10:22:13;;;;;;;11.73;10.43;;;18.80;65.60;;;;;;5098371;28;20410;-41
2021/04/29 10:24:43;;;;;;;11.27;9.60;;;18.80;66.00;;;;;;5098003;28;20451;-42
2021/04/29 10:27:11;;;;;;;10.50;9.50;;;18.40;66.00;;;;;;5097500;28;20437;-40
2021/04/29 10:29:37;;;;;;;10.40;9.23;;;18.20;65.00;;;;;;5097999;28;20414;-42
2021/04/29 10:32:08;;;;;;;12.33;8.87;;;16.80;67.50;;;;;;5099131;28;20510;-42
2021/04/29 10:34:39;;;;;;;10.37;9.37;;;16.10;69.20;;;;;;5098116;28;20686;-42
2021/04/29 10:37:24;;;;;;;10.90;9.80;;;16.10;72.80;;;;;;5097987;28;20457;-43
2021/04/29 10:39:53;;;;;;;9.90;8.90;;;16.10;72.80;;;;;;5097876;28;20425;-42
2021/04/29 10:42:20;;;;;;;8.90;8.00;;;16.40;73.10;;;;;;5098396;28;20481;-42
2021/04/29 10:44:58;;;;;;;9.40;8.40;;;16.10;71.50;;;;;;5097570;28;20426;-41
2021/04/29 10:47:29;;;;;;;9.63;8.27;;;17.40;70.40;;;;;;5098595;28;20426;-43
2021/04/29 10:50:17;;;;;;;8.50;7.70;;;18.20;68.50;;;;;;5097773;28;20672;-41
2021/04/29 10:52:55;;;;;;;9.00;8.10;;;19.00;64.40;;;;;;5098744;28;20433;-42
2021/04/29 10:55:31;;;;;;;9.77;7.63;;;18.20;62.70;;;;;;5099126;28;20516;-39
2021/04/29 10:57:59;;;;;;;8.70;7.03;;;18.30;63.50;;;;;;5096308;28;20488;-40
2021/04/29 11:00:52;;;;;;;8.13;6.90;;;17.30;60.00;;;;;;5078503;28;20488;-41
2021/04/29 11:03:35;;;;;;;7.93;7.10;;;17.90;62.20;;;;;;5097728;28;20429;-42
2021/04/29 11:06:22;;;;;;;8.10;6.33;;;19.50;59.30;;;;;;5097891;28;20469;-43
2021/04/29 11:08:52;;;;;;;7.60;6.83;;;20.60;55.40;;;;;;5098249;28;21302;-41
2021/04/29 11:11:34;;;;;;;7.80;7.00;;;20.40;55.20;;;;;;5099005;28;20441;-43
2021/04/29 11:14:12;;;;;;;7.10;5.40;;;19.30;53.60;;;;;;5098977;28;20473;-41
2021/04/29 11:16:51;;;;;;;8.53;5.50;;;19.30;53.20;;;;;;5099155;28;20482;-41
2021/04/29 11:19:42;;;;;;;11.67;6.70;;;18.90;52.50;;;;;;5098980;28;20767;-42
2021/04/29 11:22:26;;;;;;;6.90;5.60;;;19.00;52.00;;;;;;5098663;28;20768;-43
2021/04/29 11:24:54;;;;;;;6.77;6.07;;;20.50;50.70;;;;;;5098217;28;20414;-43
2021/04/29 11:27:24;;;;;;;6.80;5.83;;;21.00;49.60;;;;;;5098195;28;20434;-42
2021/04/29 11:29:50;;;;;;;6.60;5.23;;;21.90;48.70;;;;;;5098791;28;20693;-43
2021/04/29 11:32:19;;;;;;;7.60;5.87;;;22.70;47.90;;;;;;5098082;28;20832;-43
2021/04/29 11:34:48;;;;;;;7.80;6.40;;;22.80;46.80;;;;;;5096933;28;20415;-42
2021/04/29 11:37:15;;;;;;;6.33;5.73;;;21.30;46.40;;;;;;5096698;28;20426;-43
2021/04/29 11:39:41;;;;;;;5.63;5.13;;;19.30;47.50;;;;;;5098615;28;20452;-43
2021/04/29 11:42:23;;;;;;;5.43;4.93;;;18.70;51.70;;;;;;5097964;28;20438;-41
2021/04/29 11:44:49;;;;;;;8.80;5.60;;;18.60;52.90;;;;;;5097441;28;20415;-42
2021/04/29 11:47:15;;;;;;;8.70;6.07;;;18.20;53.30;;;;;;5097682;28;20662;-43
2021/04/29 11:49:41;;;;;;;7.00;5.57;;;17.70;54.60;;;;;;5098037;28;20181;-42
2021/04/29 11:52:07;;;;;;;7.60;5.23;;;17.30;55.30;;;;;;5095904;28;20457;-42
2021/04/29 11:54:33;;;;;;;7.80;5.67;;;17.10;55.40;;;;;;5096727;28;20737;-42
2021/04/29 11:57:02;;;;;;;5.10;4.70;;;17.10;56.00;;;;;;5101885;28;20828;-41
2021/04/29 11:59:32;;;;;;;5.87;5.37;;;17.10;56.10;;;;;;5101840;28;20168;-43
2021/04/29 12:02:00;;;;;;;5.63;5.10;;;17.20;56.00;;;;;;5101892;28;20473;-42
2021/04/29 12:04:26;;;;;;;6.63;5.93;;;17.40;56.10;;;;;;5100931;28;20726;-41
2021/04/29 12:06:53;;;;;;;6.03;5.47;;;17.50;55.20;;;;;;5101812;28;20446;-42
2021/04/29 12:09:21;;;;;;;7.37;5.50;;;17.30;55.00;;;;;;5101484;28;20457;-42
2021/04/29 12:11:47;;;;;;;6.50;5.77;;;17.10;55.80;;;;;;5100800;28;20437;-41
2021/04/29 12:14:19;;;;;;;8.13;6.33;;;17.00;55.90;;;;;;5100001;28;20503;-41
2021/04/29 12:16:45;;;;;;;9.10;6.03;;;16.90;56.40;;;;;;5101607;28;20490;-43
2021/04/29 12:19:11;;;;;;;6.80;6.10;;;16.70;56.80;;;;;;5100660;28;20423;-42
2021/04/29 12:21:38;;;;;;;5.80;5.20;;;16.40;57.10;;;;;;5101835;28;20183;-41
2021/04/29 12:24:07;;;;;;;6.90;5.27;;;16.40;57.80;;;;;;5100813;28;20260;-40
2021/04/29 12:26:37;;;;;;;13.10;5.37;;;16.00;58.40;;;;;;5100543;28;20414;-41
2021/04/29 12:29:05;;;;;;;6.40;5.80;;;15.80;59.00;;;;;;5098989;28;20430;-42
2021/04/29 12:31:31;;;;;;;7.37;5.10;;;15.60;59.40;;;;;;5099900;28;20705;-40
2021/04/29 12:34:06;;;;;;;5.70;5.10;;;15.30;59.60;;;;;;5101491;28;20426;-40
2021/04/29 12:36:36;;;;;;;6.30;5.70;;;15.40;60.20;;;;;;5101799;28;20461;-40
2021/04/29 12:39:20;;;;;;;4.73;4.33;;;15.50;60.80;;;;;;5101456;28;20691;-42
2021/04/29 12:41:58;;;;;;;6.57;5.97;;;15.80;62.10;;;;;;5082552;28;20430;-43
2021/04/29 12:44:38;;;;;;;8.33;6.93;;;15.50;61.10;;;;;;5101252;28;20526;-42
2021/04/29 12:47:04;;;;;;;6.83;6.23;;;15.10;64.40;;;;;;5099138;28;20532;-41
2021/04/29 12:49:30;;;;;;;6.67;6.07;;;14.50;66.10;;;;;;5100216;28;20509;-38